createdAt,value
2023-01-18T00:01:19.628Z,41.78
2023-01-18T00:03:49.473Z,41.15
2023-01-18T00:06:17.984Z,42.85
2023-01-18T00:08:45.193Z,39.28
2023-01-18T00:11:19.102Z,39.20
2023-01-18T00:13:48.404Z,37.80
2023-01-18T00:16:20.101Z,43.78
2023-01-18T00:18:57.013Z,49.85
2023-01-18T00:21:28.371Z,55.78
2023-01-18T00:23:57.029Z,42.27
2023-01-18T00:26:24.276Z,47.10
2023-01-18T00:28:51.471Z,47.42
2023-01-18T00:31:21.144Z,42.22
2023-01-18T00:33:50.248Z,43.67
2023-01-18T00:36:18.699Z,38.08
2023-01-18T00:38:52.407Z,32.55
2023-01-18T00:41:24.297Z,32.50
2023-01-18T00:43:52.153Z,29.02
2023-01-18T00:46:28.475Z,29.58
2023-01-18T00:48:57.406Z,27.17
2023-01-18T00:51:25.706Z,30.05
2023-01-18T00:53:52.884Z,29.98
2023-01-18T00:56:22.586Z,29.42
2023-01-18T00:58:49.856Z,29.05
2023-01-18T01:01:17.435Z,26.55
2023-01-18T01:04:10.875Z,29.30
2023-01-18T01:06:47.463Z,25.08
2023-01-18T01:09:21.147Z,24.08
2023-01-18T01:12:08.046Z,24.38
2023-01-18T01:14:58.683Z,22.42
2023-01-18T01:17:46.186Z,26.88
2023-01-18T01:20:32.023Z,20.85
2023-01-18T01:23:38.239Z,22.24
2023-01-18T01:26:13.397Z,27.42
2023-01-18T01:28:45.842Z,24.67
2023-01-18T01:31:15.855Z,25.10
2023-01-18T01:33:45.021Z,24.35
2023-01-18T01:36:21.463Z,21.77
2023-01-18T01:38:48.668Z,22.08
2023-01-18T01:41:28.141Z,18.10
2023-01-18T01:44:02.997Z,18.75
2023-01-18T01:46:47.199Z,15.18
2023-01-18T01:49:21.025Z,15.52
2023-01-18T01:51:56.262Z,15.27
2023-01-18T01:54:38.658Z,14.45
2023-01-18T01:57:31.457Z,14.48
2023-01-18T02:00:02.532Z,15.05
2023-01-18T02:02:31.402Z,9.82
2023-01-18T02:05:00.336Z,15.35
2023-01-18T02:07:29.012Z,16.75
2023-01-18T02:09:58.181Z,17.40
2023-01-18T02:12:26.703Z,17.52
2023-01-18T02:14:56.783Z,17.35
2023-01-18T02:18:07.233Z,17.15
2023-01-18T02:21:06.973Z,17.33
2023-01-18T02:24:15.529Z,16.08
2023-01-18T02:27:00.449Z,16.10
2023-01-18T02:30:11.874Z,14.60
2023-01-18T02:33:01.339Z,14.00
2023-01-18T02:36:02.430Z,14.38
2023-01-18T02:38:55.809Z,14.75
2023-01-18T02:42:03.281Z,14.25
2023-01-18T02:45:02.431Z,14.60
2023-01-18T02:47:30.527Z,15.00
2023-01-18T02:49:58.375Z,15.88
2023-01-18T02:52:47.306Z,14.70
2023-01-18T02:55:33.878Z,15.43
2023-01-18T02:58:21.914Z,14.43
2023-01-18T03:01:02.263Z,14.93
2023-01-18T03:03:29.526Z,15.68
2023-01-18T03:06:01.917Z,15.50
2023-01-18T03:08:38.066Z,15.20
2023-01-18T03:11:29.122Z,16.23
2023-01-18T03:14:38.256Z,19.10
2023-01-18T03:17:21.048Z,20.77
2023-01-18T03:20:11.742Z,22.45
2023-01-18T03:23:17.979Z,22.10
2023-01-18T03:25:48.689Z,21.98
2023-01-18T03:29:07.987Z,21.88
2023-01-18T03:32:23.582Z,20.30
2023-01-18T03:35:10.711Z,20.00
2023-01-18T03:37:42.467Z,20.38
2023-01-18T03:40:19.119Z,22.25
2023-01-18T03:43:18.779Z,22.52
2023-01-18T03:45:52.524Z,21.60
2023-01-18T03:48:19.722Z,23.38
2023-01-18T03:51:09.341Z,23.40
2023-01-18T03:53:48.285Z,23.15
2023-01-18T03:56:27.267Z,23.67
2023-01-18T03:59:02.598Z,23.17
2023-01-18T04:01:30.137Z,22.80
2023-01-18T04:03:59.774Z,23.58
2023-01-18T04:06:27.332Z,24.42
2023-01-18T04:08:54.500Z,22.55
2023-01-18T04:11:23.147Z,22.63
2023-01-18T04:13:50.297Z,21.02
2023-01-18T04:16:17.392Z,21.58
2023-01-18T04:18:44.563Z,22.48
2023-01-18T04:21:11.684Z,24.75
2023-01-18T04:23:38.732Z,26.10
2023-01-18T04:26:06.127Z,23.17
2023-01-18T04:28:34.635Z,23.77
2023-01-18T04:31:04.458Z,25.02
2023-01-18T04:33:31.608Z,23.48
2023-01-18T04:35:58.710Z,21.60
2023-01-18T04:38:35.011Z,21.50
2023-01-18T04:41:06.374Z,21.10
2023-01-18T04:43:38.529Z,15.63
2023-01-18T04:48:33.488Z,18.55
2023-01-18T04:51:00.924Z,18.20
2023-01-18T04:53:29.231Z,18.42
2023-01-18T04:55:59.826Z,18.30
2023-01-18T04:58:26.929Z,18.50
2023-01-18T05:00:54.113Z,18.27
2023-01-18T05:03:21.249Z,19.13
2023-01-18T05:05:48.372Z,18.92
2023-01-18T05:08:15.533Z,17.85
2023-01-18T05:10:45.197Z,17.98
2023-01-18T05:13:12.354Z,18.35
2023-01-18T05:15:41.957Z,17.85
2023-01-18T05:18:09.070Z,16.85
2023-01-18T05:20:36.221Z,16.80
2023-01-18T05:23:10.830Z,15.90
2023-01-18T05:25:39.298Z,17.40
2023-01-18T05:28:08.736Z,17.38
2023-01-18T05:30:41.335Z,17.63
2023-01-18T05:33:09.788Z,16.52
2023-01-18T05:35:39.403Z,16.30
2023-01-18T05:38:06.711Z,16.00
2023-01-18T05:40:33.884Z,16.88
2023-01-18T05:43:01.223Z,16.50
2023-01-18T05:45:28.510Z,15.90
2023-01-18T05:47:55.860Z,16.52
2023-01-18T05:50:23.176Z,16.80
2023-01-18T05:52:55.485Z,16.77
2023-01-18T05:55:22.682Z,17.35
2023-01-18T05:57:49.850Z,16.80
2023-01-18T06:00:17.650Z,18.58
2023-01-18T06:02:45.070Z,16.35
2023-01-18T06:05:12.882Z,17.30
2023-01-18T06:07:42.283Z,17.08
2023-01-18T06:10:12.947Z,17.08
2023-01-18T06:12:41.328Z,17.17
2023-01-18T06:15:11.980Z,16.98
2023-01-18T06:17:39.977Z,17.40
2023-01-18T06:20:08.289Z,18.17
2023-01-18T06:22:35.532Z,17.05
2023-01-18T06:25:02.657Z,18.00
2023-01-18T06:27:29.916Z,19.23
2023-01-18T06:29:57.105Z,18.90
2023-01-18T06:32:24.225Z,20.58
2023-01-18T06:34:51.716Z,19.60
2023-01-18T06:37:18.870Z,20.70
2023-01-18T06:39:45.921Z,17.35
2023-01-18T06:42:13.037Z,18.50
2023-01-18T06:44:41.097Z,18.80
2023-01-18T06:47:08.248Z,20.70
2023-01-18T06:49:35.477Z,24.42
2023-01-18T06:52:02.867Z,23.92
2023-01-18T06:54:30.993Z,25.85
2023-01-18T06:57:00.687Z,25.10
2023-01-18T06:59:28.591Z,18.35
2023-01-18T07:01:58.558Z,18.92
2023-01-18T07:04:26.165Z,18.75
2023-01-18T07:06:53.566Z,21.20
2023-01-18T07:09:20.790Z,22.13
2023-01-18T07:11:48.047Z,22.20
2023-01-18T07:14:15.436Z,21.63
2023-01-18T07:16:42.712Z,22.50
2023-01-18T07:19:10.102Z,21.52
2023-01-18T07:21:37.294Z,24.65
2023-01-18T07:24:04.982Z,26.75
2023-01-18T07:26:32.105Z,28.13
2023-01-18T07:29:00.196Z,29.33
2023-01-18T07:31:27.632Z,34.22
2023-01-18T07:33:57.170Z,35.55
2023-01-18T07:36:24.562Z,28.73
2023-01-18T07:38:52.399Z,29.35
2023-01-18T07:41:23.396Z,27.95
2023-01-18T07:43:51.508Z,24.92
2023-01-18T07:46:22.276Z,26.30
2023-01-18T07:48:49.852Z,26.13
2023-01-18T07:51:17.003Z,23.70
2023-01-18T07:53:44.673Z,22.63
2023-01-18T07:56:17.953Z,22.40
2023-01-18T07:58:46.801Z,22.52
2023-01-18T08:01:18.230Z,23.67
2023-01-18T08:03:50.078Z,24.83
2023-01-18T08:06:25.092Z,23.52
2023-01-18T08:08:56.118Z,23.25
2023-01-18T08:11:23.569Z,25.50
2023-01-18T08:13:52.686Z,32.63
2023-01-18T08:16:20.162Z,31.05
2023-01-18T08:18:50.588Z,30.45
2023-01-18T08:21:20.595Z,26.42
2023-01-18T08:23:51.331Z,26.45
2023-01-18T08:26:18.480Z,24.67
2023-01-18T08:28:45.681Z,22.60
2023-01-18T08:31:21.404Z,19.02
2023-01-18T08:33:51.095Z,21.45
2023-01-18T08:36:26.828Z,23.48
2023-01-18T08:38:57.285Z,21.23
2023-01-18T08:41:29.012Z,20.63
2023-01-18T08:43:57.748Z,20.75
2023-01-18T08:46:26.061Z,23.13
2023-01-18T08:49:00.544Z,26.27
2023-01-18T08:51:27.758Z,26.45
2023-01-18T08:53:57.479Z,23.70
2023-01-18T08:56:25.544Z,23.90
2023-01-18T08:58:52.993Z,23.92
2023-01-18T09:01:23.447Z,22.90
2023-01-18T09:03:53.234Z,23.58
2023-01-18T09:06:22.658Z,24.48
2023-01-18T09:08:50.929Z,21.85
2023-01-18T09:11:20.481Z,23.80
2023-01-18T09:14:00.715Z,24.42
2023-01-18T09:16:29.151Z,22.58
2023-01-18T09:18:56.529Z,23.27
2023-01-18T09:21:24.523Z,21.75
2023-01-18T09:23:51.629Z,20.23
2023-01-18T09:26:21.144Z,20.00
2023-01-18T09:28:52.505Z,23.77
2023-01-18T09:31:23.441Z,21.95
2023-01-18T09:33:53.977Z,22.17
2023-01-18T09:36:26.787Z,22.63
2023-01-18T09:38:55.866Z,22.95
2023-01-18T09:41:34.781Z,26.95
2023-01-18T09:44:33.295Z,30.50
2023-01-18T09:47:21.668Z,27.92
2023-01-18T09:50:20.985Z,22.13
2023-01-18T09:52:57.734Z,22.27
2023-01-18T09:55:38.614Z,21.70
2023-01-18T09:58:43.013Z,19.70
2023-01-18T10:01:19.791Z,18.60
2023-01-18T10:04:22.508Z,18.20
2023-01-18T10:06:55.287Z,17.95
2023-01-18T10:09:42.032Z,17.88
2023-01-18T10:12:23.696Z,17.83
2023-01-18T10:15:01.281Z,23.10
2023-01-18T10:17:39.371Z,26.25
2023-01-18T10:20:55.765Z,23.48
2023-01-18T10:23:24.997Z,20.80
2023-01-18T10:26:08.065Z,19.23
2023-01-18T10:29:06.495Z,23.60
2023-01-18T10:31:51.798Z,29.35
2023-01-18T10:34:24.625Z,26.35
2023-01-18T10:37:33.657Z,27.70
2023-01-18T10:40:10.274Z,22.17
2023-01-18T10:42:50.985Z,15.45
2023-01-18T10:45:23.804Z,14.50
2023-01-18T10:47:55.007Z,14.40
2023-01-18T10:50:35.343Z,12.43
2023-01-18T10:53:41.489Z,13.52
2023-01-18T10:56:19.161Z,12.25
2023-01-18T10:59:00.203Z,11.85
2023-01-18T11:01:30.175Z,12.85
2023-01-18T11:04:07.770Z,12.65
2023-01-18T11:06:55.592Z,11.80
2023-01-18T11:09:51.669Z,12.13
2023-01-18T11:12:38.929Z,12.20
2023-01-18T11:15:15.234Z,11.25
2023-01-18T11:18:00.781Z,11.75
2023-01-18T11:20:53.224Z,11.70
2023-01-18T11:23:37.870Z,13.05
2023-01-18T11:26:19.152Z,12.38
2023-01-18T11:29:00.190Z,13.10
2023-01-18T11:31:32.155Z,13.45
2023-01-18T11:34:06.387Z,14.05
2023-01-18T11:36:40.674Z,12.98
2023-01-18T11:39:34.676Z,13.30
2023-01-18T11:42:31.706Z,13.45
2023-01-18T11:45:20.079Z,12.43
2023-01-18T11:48:08.651Z,13.13
2023-01-18T11:50:49.062Z,13.77
2023-01-18T11:53:17.023Z,16.05
2023-01-18T11:56:14.390Z,14.55
2023-01-18T11:58:41.637Z,11.80
2023-01-18T12:02:00.648Z,12.32
2023-01-18T12:04:40.427Z,13.18
2023-01-18T12:07:25.150Z,11.75
2023-01-18T12:09:55.818Z,12.27
2023-01-18T12:13:19.161Z,11.32
2023-01-18T12:15:52.277Z,12.20
2023-01-18T12:18:51.715Z,11.50
2023-01-18T12:21:30.906Z,11.88
2023-01-18T12:24:37.630Z,11.75
2023-01-18T12:27:29.397Z,12.57
2023-01-18T12:31:06.794Z,11.15
2023-01-18T12:34:08.158Z,9.20
2023-01-18T12:37:14.635Z,10.82
2023-01-18T12:40:35.180Z,10.30
2023-01-18T12:43:26.990Z,10.95
2023-01-18T12:46:07.064Z,10.68
2023-01-18T12:49:06.155Z,11.98
2023-01-18T12:51:37.769Z,11.55
2023-01-18T12:54:35.887Z,12.90
2023-01-18T12:57:04.238Z,12.77
2023-01-18T13:00:01.372Z,11.70
2023-01-18T13:02:37.847Z,12.35
2023-01-18T13:05:35.421Z,11.70
2023-01-18T13:08:27.472Z,12.73
2023-01-18T13:11:12.576Z,12.00
2023-01-18T13:13:42.211Z,11.30
2023-01-18T13:16:40.637Z,11.57
2023-01-18T13:19:20.483Z,11.10
2023-01-18T13:22:06.957Z,11.07
2023-01-18T13:24:53.352Z,10.52
2023-01-18T13:27:20.690Z,11.45
2023-01-18T13:29:49.062Z,10.55
2023-01-18T13:32:35.501Z,10.60
2023-01-18T13:35:21.137Z,10.95
2023-01-18T13:38:00.191Z,9.82
2023-01-18T13:40:35.947Z,10.45
2023-01-18T13:43:05.824Z,11.07
2023-01-18T13:45:53.089Z,11.15
2023-01-18T13:49:02.397Z,11.82
2023-01-18T13:51:42.164Z,11.50
2023-01-18T13:54:15.212Z,11.73
2023-01-18T13:57:04.357Z,12.18
2023-01-18T13:59:44.579Z,12.52
2023-01-18T14:02:23.366Z,12.77
2023-01-18T14:05:25.906Z,12.73
2023-01-18T14:08:01.382Z,13.40
2023-01-18T14:10:45.037Z,12.65
2023-01-18T14:13:17.886Z,12.18
2023-01-18T14:15:55.015Z,12.27
2023-01-18T14:18:30.467Z,11.95
2023-01-18T14:21:00.289Z,11.80
2023-01-18T14:23:33.519Z,12.57
2023-01-18T14:26:14.320Z,12.77
2023-01-18T14:29:01.826Z,12.40
2023-01-18T14:31:37.773Z,13.40
2023-01-18T14:34:30.299Z,13.60
2023-01-18T14:36:58.076Z,14.85
2023-01-18T14:39:26.074Z,15.70
2023-01-18T14:42:05.674Z,16.25
2023-01-18T14:44:57.467Z,15.25
2023-01-18T14:47:32.185Z,14.65
2023-01-18T14:50:03.309Z,15.20
2023-01-18T14:52:35.049Z,15.02
2023-01-18T14:55:02.662Z,18.17
2023-01-18T14:57:29.961Z,17.80
2023-01-18T15:00:16.346Z,20.30
2023-01-18T15:02:43.930Z,18.77
2023-01-18T15:05:21.054Z,17.30
2023-01-18T15:07:55.879Z,15.43
2023-01-18T15:10:24.328Z,14.65
2023-01-18T15:12:57.688Z,13.02
2023-01-18T15:15:34.123Z,12.55
2023-01-18T15:18:10.691Z,13.48
2023-01-18T15:21:15.586Z,12.07
2023-01-18T15:23:43.604Z,12.82
2023-01-18T15:26:10.899Z,14.50
2023-01-18T15:28:37.986Z,13.82
2023-01-18T15:31:16.416Z,15.15
2023-01-18T15:33:44.923Z,15.38
2023-01-18T15:36:12.568Z,15.18
2023-01-18T15:38:39.952Z,13.68
2023-01-18T15:41:15.049Z,13.05
2023-01-18T15:43:45.165Z,13.88
2023-01-18T15:46:17.472Z,13.68
2023-01-18T15:51:43.466Z,13.57
2023-01-18T15:54:22.493Z,13.48
2023-01-18T15:56:49.736Z,14.32
2023-01-18T15:59:26.371Z,13.25
2023-01-18T16:02:08.931Z,12.00
2023-01-18T16:04:36.371Z,14.23
2023-01-18T16:07:31.219Z,12.45
2023-01-18T16:10:17.083Z,14.43
2023-01-18T16:12:48.277Z,13.35
2023-01-18T16:15:31.764Z,12.23
2023-01-18T16:18:06.430Z,11.90
2023-01-18T16:20:35.300Z,12.10
2023-01-18T16:23:21.362Z,12.13
2023-01-18T16:26:02.866Z,12.35
2023-01-18T16:28:30.269Z,12.05
2023-01-18T16:30:57.509Z,12.05
2023-01-18T16:33:26.792Z,12.55
2023-01-18T16:35:53.878Z,12.73
2023-01-18T16:38:21.080Z,11.60
2023-01-18T16:40:50.996Z,12.65
2023-01-18T16:43:32.017Z,11.80
2023-01-18T16:46:04.208Z,12.25
2023-01-18T16:48:33.648Z,12.05
2023-01-18T16:51:01.438Z,11.73
2023-01-18T16:53:29.229Z,11.30
2023-01-18T16:55:57.036Z,12.75
2023-01-18T16:58:24.602Z,12.70
2023-01-18T17:01:08.212Z,13.27
2023-01-18T17:03:36.155Z,13.25
2023-01-18T17:06:05.925Z,13.50
2023-01-18T17:08:33.711Z,14.30
2023-01-18T17:11:00.906Z,13.70
2023-01-18T17:13:28.025Z,14.35
2023-01-18T17:15:55.248Z,15.95
2023-01-18T17:18:26.009Z,16.35
2023-01-18T17:20:54.831Z,17.02
2023-01-18T17:23:23.090Z,16.40
2023-01-18T17:25:50.164Z,17.25
2023-01-18T17:28:19.362Z,18.02
2023-01-18T17:30:49.732Z,19.35
2023-01-18T17:33:24.333Z,22.00
2023-01-18T17:35:54.249Z,22.83
2023-01-18T17:38:27.050Z,27.70
2023-01-18T17:40:56.343Z,25.50
2023-01-18T17:43:33.277Z,24.25
2023-01-18T17:46:06.448Z,19.30
2023-01-18T17:48:34.421Z,20.48
2023-01-18T17:51:04.364Z,19.00
2023-01-18T17:53:31.496Z,19.15
2023-01-18T17:55:58.562Z,19.90
2023-01-18T17:58:26.270Z,17.23
2023-01-18T18:00:53.626Z,18.58
2023-01-18T18:03:20.811Z,16.67
2023-01-18T18:05:48.271Z,19.70
2023-01-18T18:08:17.778Z,19.63
2023-01-18T18:10:44.932Z,18.73
2023-01-18T18:13:12.107Z,20.40
2023-01-18T18:15:39.265Z,20.27
2023-01-18T18:18:12.329Z,20.00
2023-01-18T18:20:58.602Z,23.67
2023-01-18T18:23:27.063Z,26.98
2023-01-18T18:25:54.882Z,27.08
2023-01-18T18:28:24.386Z,25.23
2023-01-18T18:30:56.892Z,23.98
2023-01-18T18:33:25.945Z,21.63
2023-01-18T18:35:53.531Z,21.80
2023-01-18T18:38:24.277Z,20.60
2023-01-18T18:40:51.911Z,21.33
2023-01-18T18:43:20.620Z,21.08
2023-01-18T18:45:48.171Z,20.83
2023-01-18T18:48:15.289Z,20.80
2023-01-18T18:50:42.366Z,20.90
2023-01-18T18:53:11.918Z,20.63
2023-01-18T18:55:41.512Z,18.98
2023-01-18T18:58:08.549Z,19.23
2023-01-18T19:00:36.103Z,20.73
2023-01-18T19:03:06.699Z,22.20
2023-01-18T19:05:35.930Z,21.00
2023-01-18T19:08:04.041Z,22.02
2023-01-18T19:10:31.304Z,22.50
2023-01-18T19:12:59.690Z,22.05
2023-01-18T19:15:27.289Z,20.88
2023-01-18T19:17:54.391Z,22.27
2023-01-18T19:20:37.003Z,21.85
2023-01-18T19:23:06.761Z,21.75
2023-01-18T19:25:33.923Z,23.25
2023-01-18T19:28:01.008Z,22.80
2023-01-18T19:30:28.238Z,21.30
2023-01-18T19:32:55.773Z,21.10
2023-01-18T19:35:23.024Z,21.42
2023-01-18T19:37:51.312Z,20.13
2023-01-18T19:40:20.103Z,19.50
2023-01-18T19:42:55.828Z,19.33
2023-01-18T19:45:28.181Z,19.50
2023-01-18T19:47:57.786Z,20.05
2023-01-18T19:50:26.899Z,19.15
2023-01-18T19:52:54.363Z,21.67
2023-01-18T19:55:21.808Z,20.33
2023-01-18T19:57:51.052Z,20.73
2023-01-18T20:00:19.167Z,21.55
2023-01-18T20:02:46.403Z,20.70
2023-01-18T20:05:15.908Z,21.25
2023-01-18T20:07:43.416Z,21.65
2023-01-18T20:10:11.317Z,20.38
2023-01-18T20:12:43.057Z,20.80
2023-01-18T20:15:11.901Z,20.33
2023-01-18T20:17:39.091Z,22.05
2023-01-18T20:20:07.550Z,20.67
2023-01-18T20:22:34.659Z,20.35
2023-01-18T20:25:01.712Z,19.30
2023-01-18T20:27:31.237Z,18.13
2023-01-18T20:29:58.970Z,19.20
2023-01-18T20:32:26.153Z,18.58
2023-01-18T20:34:53.364Z,19.98
2023-01-18T20:37:20.833Z,20.55
2023-01-18T20:39:50.219Z,21.80
2023-01-18T20:42:18.272Z,21.13
2023-01-18T20:44:49.264Z,21.10
2023-01-18T20:47:16.920Z,20.33
2023-01-18T20:49:45.513Z,19.80
2023-01-18T20:52:12.957Z,19.83
2023-01-18T20:54:40.054Z,19.92
2023-01-18T20:57:07.386Z,19.13
2023-01-18T20:59:34.815Z,20.02
2023-01-18T21:02:04.578Z,18.38
2023-01-18T21:04:35.950Z,20.08
2023-01-18T21:07:03.194Z,19.67
2023-01-18T21:09:30.368Z,18.95
2023-01-18T21:11:59.887Z,19.35
2023-01-18T21:14:29.639Z,18.85
2023-01-18T21:16:59.200Z,19.02
2023-01-18T21:19:29.452Z,20.88
2023-01-18T21:21:56.804Z,21.33
2023-01-18T21:24:24.056Z,20.58
2023-01-18T21:26:51.362Z,21.77
2023-01-18T21:29:18.622Z,25.17
2023-01-18T21:31:48.213Z,24.75
2023-01-18T21:34:15.581Z,26.40
2023-01-18T21:36:42.867Z,26.85
2023-01-18T21:39:18.293Z,28.08
2023-01-18T21:42:09.240Z,29.80
2023-01-18T21:44:55.171Z,29.52
2023-01-18T21:47:22.752Z,30.45
2023-01-18T21:50:17.418Z,30.60
2023-01-18T21:53:04.062Z,30.73
2023-01-18T21:55:31.271Z,32.03
2023-01-18T21:58:18.331Z,30.02
2023-01-18T22:00:45.542Z,28.90
2023-01-18T22:03:15.328Z,30.30
2023-01-18T22:05:44.903Z,33.42
2023-01-18T22:08:12.055Z,32.60
2023-01-18T22:10:39.205Z,32.60
2023-01-18T22:13:06.326Z,29.70
2023-01-18T22:15:33.435Z,32.50
2023-01-18T22:18:00.997Z,33.67
2023-01-18T22:20:31.668Z,32.67
2023-01-18T22:22:59.424Z,32.47
2023-01-18T22:25:26.556Z,31.88
2023-01-18T22:27:53.629Z,25.77
2023-01-18T22:30:20.935Z,26.30
2023-01-18T22:32:48.064Z,23.95
2023-01-18T22:35:15.256Z,24.17
2023-01-18T22:37:42.529Z,24.08
2023-01-18T22:40:12.449Z,24.08
2023-01-18T22:42:41.970Z,22.85
2023-01-18T22:45:11.981Z,22.50
2023-01-18T22:47:39.072Z,20.50
2023-01-18T22:50:11.907Z,20.10
2023-01-18T22:52:38.964Z,22.20
2023-01-18T22:55:09.210Z,21.48
2023-01-18T22:57:36.332Z,21.90
2023-01-18T23:00:07.064Z,21.25
2023-01-18T23:02:34.608Z,21.17
2023-01-18T23:05:01.743Z,21.55
2023-01-18T23:07:31.397Z,20.98
2023-01-18T23:09:58.597Z,20.85
2023-01-18T23:12:25.746Z,19.83
2023-01-18T23:15:11.618Z,19.92
2023-01-18T23:17:38.727Z,20.60
2023-01-18T23:20:10.227Z,20.60
2023-01-18T23:22:37.599Z,20.42
2023-01-18T23:25:05.262Z,21.45
2023-01-18T23:27:34.940Z,21.15
2023-01-18T23:30:02.595Z,21.75
2023-01-18T23:32:32.877Z,22.98
2023-01-18T23:35:02.690Z,23.48
2023-01-18T23:37:32.302Z,24.10
2023-01-18T23:40:18.481Z,24.85
2023-01-18T23:43:06.489Z,23.25
2023-01-18T23:45:52.177Z,24.65
2023-01-18T23:48:39.054Z,24.05
2023-01-18T23:51:27.212Z,24.33
2023-01-18T23:54:15.627Z,26.40
2023-01-18T23:56:45.165Z,26.70
2023-01-18T23:59:13.939Z,25.70
